Time;durP1;ratioP1;P1;durP2;ratioP2;P2;SDS_P1;SDS_P2;PMS_P1;PMS_P2;Temp;Humidity;BMP_temperature;BMP_pressure;BME280_temperature;BME280_humidity;BME280_pressure;Samples;Min_cycle;Max_cycle;Signal;HPM_P1;HPM_P2
2022/01/30 00:02:19;;;;;;;20.58;3.10;;;4.60;99.90;;;;;;5014224;28;20114;-95
2022/01/30 00:05:08;;;;;;;25.65;3.63;;;4.50;99.90;;;;;;5013603;28;20042;-96
2022/01/30 00:07:36;;;;;;;25.27;2.97;;;4.50;99.90;;;;;;4995655;28;20043;-94
2022/01/30 00:10:57;;;;;;;23.23;3.60;;;4.50;99.90;;;;;;4998925;28;20054;-94
2022/01/30 00:16:37;;;;;;;31.50;4.18;;;4.30;99.90;;;;;;5334609;23;20045;-94
2022/01/30 00:55:56;;;;;;;17.48;2.75;;;4.00;99.90;;;;;;5617109;23;20093;-94
2022/01/30 00:58:21;;;;;;;23.30;2.97;;;4.00;99.90;;;;;;4997407;28;20046;-95
2022/01/30 01:00:47;;;;;;;33.35;4.20;;;4.00;99.90;;;;;;4997905;28;20102;-95
2022/01/30 01:03:13;;;;;;;23.75;4.43;;;4.00;99.90;;;;;;5000012;28;20057;-96
2022/01/30 01:05:39;;;;;;;29.40;3.80;;;4.00;99.90;;;;;;5000827;28;20053;-95
2022/01/30 04:35:33;;;;;;;19.17;2.57;;;2.90;99.90;;;;;;4984489;28;20078;-95
2022/01/30 05:00:07;;;;;;;12.35;1.55;;;2.90;99.90;;;;;;3464322;23;20329;-93
2022/01/30 05:02:48;;;;;;;17.67;2.80;;;2.90;99.90;;;;;;5026155;28;20085;-94
2022/01/30 05:07:45;;;;;;;15.43;2.10;;;2.90;99.90;;;;;;5031426;28;20045;-94
2022/01/30 05:10:10;;;;;;;15.13;2.08;;;2.90;99.90;;;;;;5035612;28;20014;-94
2022/01/30 05:12:49;;;;;;;21.83;2.10;;;2.90;99.90;;;;;;5018422;28;20049;-95
2022/01/30 05:15:18;;;;;;;9.50;1.77;;;2.90;99.90;;;;;;5034447;28;20056;-94
2022/01/30 05:17:44;;;;;;;13.20;1.98;;;2.90;99.90;;;;;;5018274;28;20038;-95
2022/01/30 05:20:12;;;;;;;16.95;1.90;;;2.90;99.90;;;;;;5017780;28;20038;-94
2022/01/30 05:22:38;;;;;;;16.48;2.58;;;2.90;99.90;;;;;;5017880;28;20026;-95
2022/01/30 05:27:52;;;;;;;16.70;2.10;;;2.80;99.90;;;;;;5772885;23;20065;-93
2022/01/30 05:30:18;;;;;;;19.83;2.38;;;2.80;99.90;;;;;;5001625;28;20030;-95
2022/01/30 09:11:38;;;;;;;10.18;2.15;;;0.90;99.90;;;;;;4937430;28;20059;-94
2022/01/30 09:14:27;;;;;;;26.95;5.20;;;0.90;99.90;;;;;;4935370;29;20028;-95
2022/01/30 09:16:56;;;;;;;17.27;4.88;;;0.90;99.90;;;;;;4928529;29;20068;-94
2022/01/30 09:19:22;;;;;;;21.00;5.40;;;1.00;99.90;;;;;;4933520;29;20051;-95
2022/01/30 09:21:51;;;;;;;26.70;6.82;;;1.00;99.90;;;;;;4921110;29;20039;-94
2022/01/30 09:24:17;;;;;;;17.88;6.50;;;1.00;99.90;;;;;;4922392;29;20482;-94
2022/01/30 09:26:46;;;;;;;17.67;6.15;;;1.10;99.90;;;;;;4930668;29;20036;-95
2022/01/30 09:29:16;;;;;;;21.70;5.68;;;1.10;99.90;;;;;;4934970;29;20036;-95
2022/01/30 09:31:43;;;;;;;26.42;8.65;;;1.10;99.90;;;;;;4929309;29;20032;-96
2022/01/30 09:34:13;;;;;;;25.10;7.75;;;1.20;99.90;;;;;;4943104;29;20114;-96
2022/01/30 09:48:00;;;;;;;22.97;6.97;;;2.30;99.90;;;;;;4985400;28;20058;-94
2022/01/30 09:50:27;;;;;;;20.25;5.95;;;2.50;99.90;;;;;;4983126;28;20376;-95
2022/01/30 09:52:53;;;;;;;16.05;4.45;;;2.80;99.90;;;;;;4980549;28;20015;-95
2022/01/30 09:55:23;;;;;;;13.43;5.03;;;2.90;99.90;;;;;;4984502;28;20038;-95
2022/01/30 09:57:49;;;;;;;23.52;5.00;;;3.10;99.90;;;;;;4956560;28;20030;-93
2022/01/30 10:00:16;;;;;;;16.20;4.38;;;3.40;99.90;;;;;;4977225;28;20039;-94
2022/01/30 10:02:46;;;;;;;16.40;3.92;;;3.60;99.90;;;;;;4969993;28;20050;-96
2022/01/30 10:07:59;;;;;;;13.57;3.05;;;4.10;99.90;;;;;;5026195;28;20042;-96
2022/01/30 10:10:28;;;;;;;13.80;2.63;;;4.40;99.90;;;;;;4997285;28;20030;-96
2022/01/30 10:16:40;;;;;;;12.00;2.67;;;4.90;99.90;;;;;;5067248;23;20058;-95
2022/01/30 10:19:23;;;;;;;12.75;3.00;;;5.40;99.90;;;;;;5005763;28;20049;-95
2022/01/30 10:22:08;;;;;;;18.10;3.88;;;5.80;99.90;;;;;;5002820;28;20022;-96
2022/01/30 10:24:43;;;;;;;11.55;2.40;;;6.10;99.90;;;;;;4994340;28;20038;-96
2022/01/30 10:27:30;;;;;;;16.23;2.10;;;6.40;99.90;;;;;;5020217;28;20057;-96
2022/01/30 10:32:33;;;;;;;13.32;2.92;;;6.70;99.90;;;;;;5640267;22;20053;-94
2022/01/30 10:35:08;;;;;;;10.18;2.22;;;6.90;99.90;;;;;;4996641;28;20049;-94
2022/01/30 10:37:39;;;;;;;11.60;1.90;;;7.00;99.90;;;;;;4992835;28;20046;-96
2022/01/30 10:53:42;;;;;;;20.90;4.47;;;8.20;99.90;;;;;;5062190;23;20040;-96
2022/01/30 11:06:39;;;;;;;18.60;3.10;;;8.50;99.90;;;;;;5165940;22;20048;-95
2022/01/30 11:11:51;;;;;;;18.50;3.22;;;8.10;99.90;;;;;;5183062;23;20065;-95
2022/01/30 11:25:39;;;;;;;16.70;3.10;;;7.90;99.90;;;;;;5473285;23;20044;-95
2022/01/30 11:28:10;;;;;;;17.05;2.47;;;8.00;99.90;;;;;;5011916;28;20106;-95
2022/01/30 11:33:36;;;;;;;26.73;2.78;;;8.20;99.90;;;;;;5713599;22;20061;-93
2022/01/30 11:36:05;;;;;;;24.37;4.47;;;8.30;99.90;;;;;;5126747;22;20073;-94
2022/01/30 11:38:31;;;;;;;19.42;3.10;;;8.30;99.90;;;;;;5270413;23;20353;-96
2022/01/30 11:41:17;;;;;;;15.77;3.10;;;8.30;99.90;;;;;;5012879;28;20112;-96
2022/01/30 11:44:17;;;;;;;26.10;3.30;;;8.30;99.70;;;;;;4995661;28;20033;-94
2022/01/30 11:46:44;;;;;;;16.17;2.40;;;8.40;99.60;;;;;;5001925;28;20034;-94
2022/01/30 11:49:14;;;;;;;20.73;2.47;;;8.40;99.60;;;;;;4999641;28;20030;-92
2022/01/30 11:51:53;;;;;;;17.53;3.00;;;8.40;99.20;;;;;;4997969;28;20025;-94
2022/01/30 11:54:37;;;;;;;17.15;2.85;;;8.40;98.90;;;;;;4965317;28;20030;-95
2022/01/30 11:57:22;;;;;;;17.83;3.15;;;8.40;98.70;;;;;;4967040;28;20523;-93
2022/01/30 11:59:51;;;;;;;15.70;3.60;;;8.30;98.70;;;;;;4991923;28;20109;-93
2022/01/30 12:02:35;;;;;;;16.73;3.30;;;8.40;98.80;;;;;;4973235;28;20034;-94
2022/01/30 12:05:02;;;;;;;20.50;4.03;;;8.60;98.80;;;;;;4970171;28;20023;-93
2022/01/30 12:07:45;;;;;;;14.73;3.42;;;9.10;98.60;;;;;;4992218;28;20058;-93
2022/01/30 12:10:24;;;;;;;22.55;4.30;;;9.60;97.40;;;;;;4970003;28;20027;-93
2022/01/30 12:13:01;;;;;;;16.33;3.40;;;9.90;95.60;;;;;;4997045;28;20054;-93
2022/01/30 12:15:43;;;;;;;13.82;2.72;;;9.80;94.10;;;;;;4980355;28;20034;-94
2022/01/30 12:18:10;;;;;;;14.02;3.10;;;9.70;93.70;;;;;;4981159;28;20063;-94
2022/01/30 12:20:59;;;;;;;10.80;2.40;;;9.60;93.40;;;;;;4979678;28;20061;-94
2022/01/30 12:23:36;;;;;;;13.20;2.20;;;9.50;93.20;;;;;;4980355;28;20030;-94
2022/01/30 12:26:08;;;;;;;14.38;2.72;;;9.50;92.50;;;;;;4996065;28;20092;-93
2022/01/30 12:28:54;;;;;;;13.45;2.75;;;9.50;92.30;;;;;;4980163;28;20030;-93
2022/01/30 12:31:36;;;;;;;4.90;1.77;;;9.50;92.10;;;;;;4981441;28;20057;-93
2022/01/30 12:34:05;;;;;;;11.43;2.33;;;9.60;92.00;;;;;;4987181;28;20027;-94
2022/01/30 12:36:35;;;;;;;16.00;2.58;;;9.70;91.70;;;;;;4996885;28;20061;-94
2022/01/30 12:39:15;;;;;;;15.48;3.05;;;9.70;91.10;;;;;;4979690;28;20218;-95
2022/01/30 12:41:43;;;;;;;20.10;3.17;;;9.70;91.20;;;;;;4980857;28;20061;-95
2022/01/30 12:44:19;;;;;;;18.40;2.92;;;9.60;91.10;;;;;;4994682;28;20026;-94
2022/01/30 12:46:53;;;;;;;17.80;3.97;;;9.30;90.80;;;;;;4979432;28;20480;-95
2022/01/30 12:49:27;;;;;;;11.00;2.92;;;9.10;90.80;;;;;;4979422;28;20494;-94
2022/01/30 12:51:55;;;;;;;7.13;2.15;;;9.00;91.00;;;;;;4980704;28;20036;-95
2022/01/30 12:54:24;;;;;;;9.70;2.28;;;9.10;91.00;;;;;;4981427;28;20567;-95
2022/01/30 12:56:52;;;;;;;9.73;2.58;;;9.20;90.50;;;;;;4979442;28;20034;-94
2022/01/30 12:59:19;;;;;;;15.77;3.17;;;9.20;90.20;;;;;;4995615;28;20031;-93
2022/01/30 13:01:47;;;;;;;15.07;2.83;;;9.10;90.10;;;;;;4979414;28;20038;-94
2022/01/30 13:04:16;;;;;;;19.90;2.75;;;9.10;90.10;;;;;;4978557;28;20033;-94
2022/01/30 13:06:50;;;;;;;17.05;3.20;;;9.10;90.30;;;;;;4979175;28;20027;-94
2022/01/30 13:09:21;;;;;;;15.82;2.38;;;9.10;90.60;;;;;;4979643;28;20027;-95
2022/01/30 13:11:46;;;;;;;;;;;9.10;90.20;;;;;;4981986;28;20026;-93
2022/01/30 13:14:12;;;;;;;15.25;2.20;;;9.10;90.30;;;;;;4990662;28;19905;-95
2022/01/30 13:16:42;;;;;;;19.23;2.60;;;9.10;90.30;;;;;;4997230;28;20046;-93
2022/01/30 13:19:10;;;;;;;12.98;2.10;;;9.00;90.20;;;;;;4979287;28;20044;-94
2022/01/30 13:21:37;;;;;;;15.18;2.13;;;9.00;90.10;;;;;;4978598;28;20030;-95
2022/01/30 13:24:05;;;;;;;12.77;2.33;;;9.00;90.20;;;;;;4978829;28;20089;-94
2022/01/30 13:26:55;;;;;;;19.08;2.83;;;9.10;90.10;;;;;;4994420;28;20026;-94
2022/01/30 13:29:22;;;;;;;11.30;2.22;;;9.30;89.40;;;;;;4995060;28;20038;-95
2022/01/30 13:31:54;;;;;;;15.35;3.60;;;9.40;89.20;;;;;;4978250;28;20022;-95
2022/01/30 13:34:30;;;;;;;14.57;3.13;;;9.50;88.70;;;;;;4994180;28;20080;-94
2022/01/30 13:37:18;;;;;;;9.13;2.45;;;9.50;88.30;;;;;;4978348;28;20038;-95
2022/01/30 13:48:05;;;;;;;13.25;2.40;;;10.40;86.20;;;;;;4998379;28;20027;-95
2022/01/30 13:50:44;;;;;;;12.88;2.58;;;10.60;84.90;;;;;;4994631;28;20080;-94
2022/01/30 13:53:17;;;;;;;7.78;1.25;;;10.60;84.00;;;;;;4979389;28;20057;-93
2022/01/30 13:56:06;;;;;;;10.50;1.73;;;10.70;83.50;;;;;;4999967;28;20050;-94
2022/01/30 13:58:41;;;;;;;10.52;2.17;;;10.70;82.40;;;;;;4983217;28;20025;-94
2022/01/30 14:01:30;;;;;;;8.32;2.10;;;10.60;82.20;;;;;;5000314;28;20034;-95
2022/01/30 14:04:13;;;;;;;13.85;2.35;;;10.30;81.60;;;;;;4982580;28;20041;-94
2022/01/30 14:06:46;;;;;;;8.52;1.73;;;9.90;82.30;;;;;;4984342;28;20023;-94
2022/01/30 14:09:15;;;;;;;12.32;2.40;;;9.60;83.20;;;;;;4982609;28;20125;-94
2022/01/30 14:11:44;;;;;;;11.23;3.13;;;9.30;83.90;;;;;;4982655;28;20026;-94
2022/01/30 14:14:16;;;;;;;10.20;2.15;;;9.00;85.00;;;;;;4982590;28;20441;-94
2022/01/30 14:16:51;;;;;;;9.23;2.03;;;8.80;86.00;;;;;;5003068;28;20034;-94
2022/01/30 14:19:22;;;;;;;6.22;1.67;;;8.50;86.90;;;;;;5005948;28;20031;-93
2022/01/30 14:21:51;;;;;;;15.10;2.63;;;8.30;87.90;;;;;;4982911;28;20137;-92
2022/01/30 14:24:20;;;;;;;10.10;2.28;;;8.10;88.70;;;;;;4981676;28;20027;-94
2022/01/30 14:26:46;;;;;;;9.10;2.10;;;8.00;89.60;;;;;;4981652;28;20042;-94
2022/01/30 14:29:16;;;;;;;12.93;4.15;;;7.90;90.10;;;;;;4982633;28;20034;-94
2022/01/30 14:31:52;;;;;;;14.88;3.08;;;7.80;90.50;;;;;;4982063;28;20026;-95
2022/01/30 14:34:19;;;;;;;7.90;1.45;;;7.70;90.80;;;;;;4982135;28;20137;-94
2022/01/30 14:36:45;;;;;;;12.63;2.42;;;7.60;91.20;;;;;;4997984;28;20041;-94
2022/01/30 14:39:12;;;;;;;11.52;2.60;;;7.50;91.50;;;;;;4982834;28;20046;-95
2022/01/30 14:41:38;;;;;;;18.00;3.28;;;7.50;91.80;;;;;;4981907;28;20056;-95
2022/01/30 14:44:05;;;;;;;14.98;3.65;;;7.50;92.10;;;;;;4990386;28;20547;-94
2022/01/30 14:46:30;;;;;;;13.98;2.80;;;7.40;92.30;;;;;;4987768;28;20030;-93
2022/01/30 14:48:56;;;;;;;12.48;2.40;;;7.40;92.50;;;;;;4985362;28;20134;-94
2022/01/30 14:51:22;;;;;;;16.33;2.78;;;7.30;92.70;;;;;;4994446;28;20015;-93
2022/01/30 14:53:48;;;;;;;16.50;2.72;;;7.30;92.90;;;;;;5000848;28;20038;-93
2022/01/30 14:56:13;;;;;;;11.75;3.10;;;7.30;93.20;;;;;;4981603;28;20146;-92
2022/01/30 14:58:39;;;;;;;17.60;3.15;;;7.20;93.40;;;;;;4981296;28;20026;-93
2022/01/30 15:01:05;;;;;;;17.75;3.30;;;7.20;93.60;;;;;;4981293;28;20031;-94
2022/01/30 15:03:33;;;;;;;21.55;5.20;;;7.20;93.90;;;;;;4981270;28;20027;-94
2022/01/30 15:06:03;;;;;;;12.95;3.28;;;7.10;94.10;;;;;;4980207;28;20035;-95
2022/01/30 15:08:29;;;;;;;11.40;2.17;;;7.10;94.40;;;;;;4983391;28;20113;-95
2022/01/30 15:10:55;;;;;;;19.02;3.00;;;7.10;94.60;;;;;;4984043;28;20575;-94
2022/01/30 15:13:22;;;;;;;14.90;5.38;;;7.00;94.70;;;;;;4983479;28;20061;-95
2022/01/30 15:15:53;;;;;;;16.92;3.83;;;7.00;94.90;;;;;;4981718;28;20034;-95
2022/01/30 15:18:31;;;;;;;22.38;10.20;;;7.00;95.10;;;;;;4982666;28;20217;-94
2022/01/30 15:20:56;;;;;;;19.00;5.28;;;7.00;95.30;;;;;;4986804;28;20057;-94
2022/01/30 15:23:25;;;;;;;15.13;2.40;;;6.90;95.50;;;;;;4987644;28;20093;-92
2022/01/30 15:25:50;;;;;;;15.75;3.00;;;6.90;95.80;;;;;;5011615;28;20181;-90
2022/01/30 15:28:16;;;;;;;23.90;6.63;;;6.80;96.00;;;;;;4995642;28;20028;-87
2022/01/30 15:30:42;;;;;;;25.65;9.23;;;6.80;96.30;;;;;;4987533;28;20034;-90
2022/01/30 15:33:07;;;;;;;20.00;6.13;;;6.80;96.50;;;;;;4980420;28;20027;-90
2022/01/30 15:35:33;;;;;;;21.08;5.70;;;6.80;96.70;;;;;;4981164;28;20078;-90
2022/01/30 15:38:02;;;;;;;21.45;4.40;;;6.90;97.00;;;;;;4981222;28;20115;-90
2022/01/30 15:40:28;;;;;;;14.27;4.80;;;6.90;97.10;;;;;;4980626;28;20137;-89
2022/01/30 15:42:54;;;;;;;14.82;4.05;;;6.90;97.20;;;;;;4981428;28;20070;-88
2022/01/30 15:50:33;;;;;;;15.73;3.58;;;7.00;97.50;;;;;;4997288;28;20034;-89
2022/01/30 15:52:58;;;;;;;16.30;5.22;;;7.00;97.60;;;;;;4979572;28;20018;-90
2022/01/30 15:55:25;;;;;;;18.15;3.15;;;7.00;97.80;;;;;;4979043;28;20030;-90
2022/01/30 15:57:51;;;;;;;14.95;3.03;;;6.90;97.90;;;;;;4977898;28;20066;-90
2022/01/30 16:00:17;;;;;;;14.15;3.38;;;7.00;98.00;;;;;;4979372;28;20026;-89
2022/01/30 16:02:44;;;;;;;15.82;3.47;;;6.90;98.00;;;;;;4977245;28;20034;-90
2022/01/30 16:05:11;;;;;;;27.50;6.25;;;6.80;98.30;;;;;;4981148;28;20154;-91
2022/01/30 16:07:38;;;;;;;26.55;5.90;;;6.80;98.40;;;;;;4979127;28;20026;-91
2022/01/30 16:10:14;;;;;;;23.05;5.95;;;6.70;98.70;;;;;;4979748;28;20049;-90
2022/01/30 16:17:55;;;;;;;25.00;5.55;;;6.60;99.60;;;;;;4996270;28;20104;-90
2022/01/30 16:20:21;;;;;;;21.50;4.57;;;6.50;99.80;;;;;;4976767;28;20103;-91
2022/01/30 16:22:47;;;;;;;23.17;5.45;;;6.50;99.90;;;;;;4976194;28;20539;-91
2022/01/30 16:25:13;;;;;;;23.70;4.63;;;6.50;99.90;;;;;;4977965;28;20169;-90
2022/01/30 16:27:40;;;;;;;15.45;3.63;;;6.40;99.90;;;;;;4977563;28;20029;-91
2022/01/30 16:30:08;;;;;;;18.13;4.18;;;6.40;99.90;;;;;;4978776;28;20026;-90
2022/01/30 16:32:33;;;;;;;16.30;4.05;;;6.40;99.90;;;;;;4975674;28;20026;-90
2022/01/30 16:34:59;;;;;;;14.40;2.97;;;6.40;99.90;;;;;;4975538;28;20133;-90
2022/01/30 16:37:26;;;;;;;25.88;5.00;;;6.40;99.90;;;;;;4976061;28;20128;-90
2022/01/30 16:39:52;;;;;;;20.00;4.15;;;6.40;99.90;;;;;;4974729;28;20396;-88
2022/01/30 16:42:25;;;;;;;22.05;3.78;;;6.40;99.90;;;;;;4972995;28;20037;-90
2022/01/30 16:44:57;;;;;;;20.55;4.00;;;6.40;99.90;;;;;;4978351;28;20129;-90
2022/01/30 16:47:30;;;;;;;21.70;5.05;;;6.50;99.90;;;;;;4976797;28;20474;-90
2022/01/30 16:49:56;;;;;;;17.02;4.07;;;6.60;99.90;;;;;;4983119;28;20093;-92
2022/01/30 16:52:22;;;;;;;18.95;4.82;;;6.70;99.90;;;;;;4979559;28;20030;-91
2022/01/30 16:54:53;;;;;;;13.38;3.53;;;6.80;99.90;;;;;;4991313;28;20031;-90
2022/01/30 16:57:20;;;;;;;19.83;4.70;;;6.70;99.90;;;;;;4972230;28;20019;-89
2022/01/30 16:59:45;;;;;;;61.05;12.07;;;6.70;99.90;;;;;;4975799;28;20392;-90
2022/01/30 17:02:14;;;;;;;15.75;3.40;;;6.70;99.90;;;;;;4976982;28;20476;-89
2022/01/30 17:04:42;;;;;;;14.07;3.20;;;6.70;99.90;;;;;;4977350;28;20026;-88
2022/01/30 17:07:08;;;;;;;15.35;2.78;;;6.60;99.90;;;;;;4977137;28;20464;-90
2022/01/30 17:09:39;;;;;;;17.63;3.47;;;6.60;99.90;;;;;;4982996;28;20064;-89
2022/01/30 17:12:18;;;;;;;15.50;3.20;;;6.50;99.90;;;;;;4997125;28;20018;-89
2022/01/30 17:14:49;;;;;;;11.90;2.28;;;6.40;99.90;;;;;;4996064;28;20061;-90
2022/01/30 17:17:17;;;;;;;12.52;2.70;;;6.40;99.90;;;;;;4982995;28;20029;-89
2022/01/30 17:19:45;;;;;;;17.60;4.80;;;6.30;99.90;;;;;;4975110;28;20034;-90
2022/01/30 17:22:12;;;;;;;17.45;3.38;;;6.30;99.90;;;;;;4991165;28;20088;-89
2022/01/30 17:24:41;;;;;;;17.92;4.55;;;6.30;99.90;;;;;;4955453;28;20031;-89
2022/01/30 17:27:09;;;;;;;19.88;4.78;;;6.30;99.90;;;;;;4956011;28;20034;-89
2022/01/30 17:29:37;;;;;;;19.85;3.65;;;6.40;99.90;;;;;;4966075;28;20022;-89
2022/01/30 17:32:03;;;;;;;23.63;4.85;;;6.40;99.90;;;;;;4975329;28;20046;-90
2022/01/30 17:34:29;;;;;;;10.27;3.97;;;6.30;99.90;;;;;;4998102;28;20472;-89
2022/01/30 17:36:54;;;;;;;11.93;3.22;;;6.30;99.90;;;;;;4974479;28;20030;-90
2022/01/30 17:39:20;;;;;;;17.70;3.22;;;6.30;99.90;;;;;;4979381;28;20044;-89
2022/01/30 17:41:47;;;;;;;16.05;3.97;;;6.30;99.90;;;;;;4981714;28;20141;-90
2022/01/30 17:44:16;;;;;;;20.98;4.05;;;6.30;99.90;;;;;;4973015;28;20038;-90
2022/01/30 17:46:45;;;;;;;21.02;5.55;;;6.20;99.90;;;;;;4979130;28;20043;-90
2022/01/30 17:49:11;;;;;;;18.17;4.82;;;6.20;99.90;;;;;;4976671;28;20077;-90
2022/01/30 17:51:37;;;;;;;11.20;3.03;;;6.20;99.90;;;;;;4976134;28;20030;-89
2022/01/30 17:54:03;;;;;;;17.95;3.55;;;6.20;99.90;;;;;;4974568;28;20026;-90
2022/01/30 17:56:34;;;;;;;16.63;3.63;;;6.10;99.90;;;;;;4975814;28;20026;-91
2022/01/30 17:59:00;;;;;;;24.40;9.15;;;6.10;99.90;;;;;;4978417;28;20023;-90
2022/01/30 18:01:25;;;;;;;21.77;5.90;;;6.10;99.90;;;;;;4983016;28;20039;-92
2022/01/30 18:03:51;;;;;;;24.80;7.60;;;6.10;99.90;;;;;;4991029;28;20042;-91
2022/01/30 18:06:18;;;;;;;33.05;14.38;;;6.10;99.90;;;;;;4977393;28;20023;-91
2022/01/30 18:08:47;;;;;;;19.15;7.80;;;6.20;99.90;;;;;;4992466;28;20042;-91
2022/01/30 18:11:14;;;;;;;13.90;4.90;;;6.20;99.90;;;;;;4975900;28;20026;-92
2022/01/30 18:13:40;;;;;;;23.08;7.63;;;6.10;99.90;;;;;;4993813;28;20022;-92
2022/01/30 18:16:06;;;;;;;17.27;4.20;;;6.10;99.90;;;;;;4978750;28;20376;-91
2022/01/30 18:18:32;;;;;;;9.50;4.15;;;6.00;99.90;;;;;;4976750;28;20022;-91
2022/01/30 18:21:00;;;;;;;18.75;4.43;;;6.00;99.90;;;;;;4973447;28;20026;-92
2022/01/30 18:23:26;;;;;;;13.77;4.32;;;5.90;99.90;;;;;;4975813;28;20025;-92
2022/01/30 18:25:51;;;;;;;14.55;3.33;;;6.00;99.90;;;;;;4979367;28;20149;-90
2022/01/30 18:28:17;;;;;;;13.50;3.97;;;5.90;99.90;;;;;;4975711;28;20015;-91
2022/01/30 18:30:45;;;;;;;22.80;5.07;;;5.90;99.90;;;;;;4974934;28;20070;-91
2022/01/30 18:33:10;;;;;;;22.23;5.30;;;5.90;99.90;;;;;;4978982;28;20030;-92
2022/01/30 18:35:41;;;;;;;16.13;4.20;;;5.90;99.90;;;;;;4975589;28;20033;-92
2022/01/30 18:38:27;;;;;;;19.58;4.53;;;5.90;99.90;;;;;;4974143;28;20042;-92
2022/01/30 18:43:25;;;;;;;17.83;4.20;;;5.80;99.90;;;;;;4998184;28;20109;-91
2022/01/30 18:45:51;;;;;;;11.52;3.97;;;5.80;99.90;;;;;;4988358;28;20022;-94
2022/01/30 18:48:20;;;;;;;16.67;2.80;;;5.80;99.90;;;;;;4980354;28;20049;-94
2022/01/30 18:50:46;;;;;;;13.75;5.15;;;5.80;99.90;;;;;;4967425;28;20053;-96
2022/01/30 18:53:15;;;;;;;22.27;4.93;;;5.80;99.90;;;;;;4981277;28;20461;-94
2022/01/30 18:55:41;;;;;;;34.80;10.05;;;5.80;99.90;;;;;;4980884;28;20100;-94
2022/01/30 18:58:07;;;;;;;26.48;6.22;;;5.80;99.90;;;;;;4980311;28;20038;-94
2022/01/30 19:00:33;;;;;;;19.65;5.70;;;5.80;99.90;;;;;;4981528;28;20022;-93
2022/01/30 19:02:58;;;;;;;44.22;10.30;;;5.80;99.90;;;;;;4980806;28;20515;-93
2022/01/30 19:05:24;;;;;;;29.92;7.72;;;5.80;99.90;;;;;;4979695;28;20360;-93
2022/01/30 19:07:50;;;;;;;22.20;6.00;;;5.80;99.90;;;;;;4980350;28;20026;-92
2022/01/30 19:10:16;;;;;;;22.63;5.13;;;5.70;99.90;;;;;;4995873;28;20113;-92
2022/01/30 19:12:42;;;;;;;16.27;4.40;;;5.70;99.90;;;;;;4982265;28;20046;-92
2022/01/30 19:15:08;;;;;;;14.77;3.58;;;5.70;99.90;;;;;;4982340;28;20026;-93
2022/01/30 19:17:34;;;;;;;43.53;9.25;;;5.70;99.90;;;;;;4986966;28;20022;-92
2022/01/30 19:19:59;;;;;;;11.88;3.30;;;5.70;99.90;;;;;;5000477;28;20025;-96
2022/01/30 19:22:25;;;;;;;13.23;2.50;;;5.70;99.90;;;;;;4999956;28;20098;-93
2022/01/30 19:24:51;;;;;;;15.77;5.35;;;5.70;99.90;;;;;;4985605;28;20133;-93
2022/01/30 19:27:19;;;;;;;11.00;3.83;;;5.70;99.90;;;;;;4980146;28;20381;-92
2022/01/30 19:29:45;;;;;;;9.10;2.67;;;5.80;99.90;;;;;;4982622;28;20039;-91
2022/01/30 19:32:11;;;;;;;14.30;5.45;;;5.70;99.90;;;;;;4977363;28;20027;-91
2022/01/30 19:34:37;;;;;;;11.73;4.13;;;5.80;99.90;;;;;;4976778;28;20113;-93
2022/01/30 19:37:04;;;;;;;12.32;4.15;;;5.80;99.90;;;;;;4977300;28;20121;-93
2022/01/30 19:39:30;;;;;;;11.77;3.78;;;5.80;99.90;;;;;;4994536;28;20042;-93
2022/01/30 19:41:55;;;;;;;12.68;3.60;;;5.80;99.90;;;;;;4991930;28;20025;-93
2022/01/30 19:44:22;;;;;;;10.88;3.42;;;5.80;99.90;;;;;;4980199;28;20041;-94
2022/01/30 19:46:53;;;;;;;14.93;4.20;;;5.80;99.90;;;;;;4985788;28;20030;-93
2022/01/30 19:49:20;;;;;;;11.93;4.00;;;5.90;99.90;;;;;;4980322;28;20034;-93
2022/01/30 19:51:46;;;;;;;10.23;3.25;;;5.90;99.90;;;;;;4968103;28;20038;-95
2022/01/30 19:54:12;;;;;;;8.98;2.55;;;5.90;99.90;;;;;;4979326;28;20053;-95
2022/01/30 19:56:38;;;;;;;9.27;3.13;;;6.00;99.90;;;;;;4980111;28;20042;-93
2022/01/30 19:59:05;;;;;;;10.25;2.30;;;6.00;99.90;;;;;;4978474;28;20510;-94
2022/01/30 20:01:31;;;;;;;11.05;2.60;;;6.10;99.90;;;;;;4980269;28;20136;-94
2022/01/30 20:03:57;;;;;;;7.45;2.83;;;6.10;99.90;;;;;;4982926;28;20033;-95
2022/01/30 20:06:23;;;;;;;7.78;1.95;;;6.20;99.90;;;;;;4979381;28;20027;-94
2022/01/30 20:08:49;;;;;;;5.75;1.50;;;6.30;99.90;;;;;;4977882;28;20113;-94
2022/01/30 20:11:15;;;;;;;10.30;2.38;;;6.40;99.90;;;;;;4982472;28;20828;-93
2022/01/30 20:13:41;;;;;;;4.18;1.95;;;6.50;99.90;;;;;;4978863;28;20391;-94
2022/01/30 20:16:08;;;;;;;6.35;1.73;;;6.60;99.90;;;;;;4973724;28;20049;-95
2022/01/30 20:18:37;;;;;;;11.02;1.83;;;6.70;99.90;;;;;;4967531;28;20046;-92
2022/01/30 20:21:07;;;;;;;4.75;1.60;;;6.80;99.90;;;;;;4980622;28;20031;-92
2022/01/30 20:23:33;;;;;;;7.80;1.63;;;6.80;99.90;;;;;;4988938;28;20022;-93
2022/01/30 20:26:00;;;;;;;3.00;1.67;;;6.90;99.90;;;;;;4990268;28;20522;-94
2022/01/30 20:28:28;;;;;;;2.17;0.85;;;7.00;99.90;;;;;;4986869;28;20050;-93
2022/01/30 20:30:59;;;;;;;3.85;1.02;;;7.00;99.90;;;;;;4982937;28;20117;-94
2022/01/30 20:33:27;;;;;;;2.42;0.73;;;7.00;99.90;;;;;;4955633;28;20058;-92
2022/01/30 20:35:54;;;;;;;2.33;0.90;;;7.00;99.90;;;;;;4978968;28;20484;-93
2022/01/30 20:38:20;;;;;;;1.33;1.02;;;7.00;99.90;;;;;;4977866;28;20040;-92
2022/01/30 20:40:47;;;;;;;5.40;1.23;;;7.00;99.90;;;;;;4978220;28;20054;-92
2022/01/30 20:43:15;;;;;;;2.35;0.80;;;7.10;99.90;;;;;;4979796;28;20023;-92
2022/01/30 20:45:42;;;;;;;3.35;1.30;;;7.10;99.90;;;;;;4983852;28;20345;-93
2022/01/30 20:48:08;;;;;;;4.93;1.70;;;7.10;99.90;;;;;;4985840;28;20034;-94
2022/01/30 20:50:34;;;;;;;6.75;1.17;;;7.20;99.90;;;;;;4985918;28;20031;-92
2022/01/30 20:53:01;;;;;;;2.95;0.77;;;7.20;99.90;;;;;;4981936;28;20114;-92
2022/01/30 20:55:27;;;;;;;5.78;1.60;;;7.20;99.90;;;;;;4982486;28;20034;-92
2022/01/30 20:57:53;;;;;;;5.82;1.15;;;7.10;99.90;;;;;;4985556;28;20057;-92
2022/01/30 21:00:20;;;;;;;7.20;1.17;;;7.00;99.90;;;;;;4986829;28;20606;-91
2022/01/30 21:02:45;;;;;;;9.13;1.30;;;7.00;99.90;;;;;;4989849;28;20026;-93
2022/01/30 21:05:12;;;;;;;11.35;2.10;;;7.00;99.90;;;;;;4984079;28;20121;-91
2022/01/30 21:07:38;;;;;;;6.97;1.13;;;6.90;99.90;;;;;;4981768;28;20027;-90
2022/01/30 21:10:09;;;;;;;11.80;1.65;;;6.90;99.90;;;;;;4976752;28;20030;-91
2022/01/30 21:12:42;;;;;;;15.10;1.73;;;6.90;99.90;;;;;;4994892;28;20081;-93
2022/01/30 21:15:12;;;;;;;4.50;0.82;;;6.90;99.90;;;;;;4988862;28;20038;-92
2022/01/30 21:17:39;;;;;;;9.33;1.47;;;6.80;99.90;;;;;;4999171;28;20026;-91
2022/01/30 21:20:06;;;;;;;17.77;3.08;;;6.80;99.90;;;;;;4980924;28;20265;-89
2022/01/30 21:22:32;;;;;;;9.45;1.80;;;6.70;99.90;;;;;;4977759;28;20133;-91
2022/01/30 21:24:58;;;;;;;8.07;1.48;;;6.70;99.90;;;;;;4977312;28;20085;-91
2022/01/30 21:27:24;;;;;;;11.15;1.80;;;6.70;99.90;;;;;;4982267;28;20506;-91
2022/01/30 21:29:49;;;;;;;6.75;1.27;;;6.70;99.90;;;;;;4983555;28;20046;-91
2022/01/30 21:32:15;;;;;;;8.93;1.80;;;6.70;99.90;;;;;;4985662;28;20026;-90
2022/01/30 21:34:41;;;;;;;7.80;1.13;;;6.60;99.90;;;;;;4976626;28;20117;-91
2022/01/30 21:37:07;;;;;;;7.70;1.52;;;6.60;99.90;;;;;;4976808;28;20294;-92
2022/01/30 21:39:37;;;;;;;7.40;1.60;;;6.60;99.90;;;;;;4976659;28;20493;-92
2022/01/30 21:42:04;;;;;;;10.73;1.77;;;6.60;99.90;;;;;;4976806;28;20113;-91
2022/01/30 21:44:30;;;;;;;7.85;1.55;;;6.50;99.90;;;;;;4975389;28;20033;-90
2022/01/30 21:46:56;;;;;;;10.77;1.80;;;6.50;99.90;;;;;;4975702;28;20077;-90
2022/01/30 21:49:21;;;;;;;6.38;1.25;;;6.50;99.90;;;;;;4976604;28;20049;-91
2022/01/30 21:51:47;;;;;;;9.10;1.60;;;6.50;99.90;;;;;;4977068;28;20030;-91
2022/01/30 21:54:15;;;;;;;13.02;1.75;;;6.50;99.90;;;;;;4984747;28;20066;-91
2022/01/30 21:56:42;;;;;;;9.20;1.65;;;6.40;99.90;;;;;;4976622;28;20092;-91
2022/01/30 21:59:08;;;;;;;6.93;1.80;;;6.40;99.90;;;;;;4976565;28;20045;-91
2022/01/30 22:01:34;;;;;;;10.85;2.10;;;6.40;99.90;;;;;;4976768;28;20475;-90
2022/01/30 22:03:59;;;;;;;4.78;1.27;;;6.40;99.90;;;;;;4977000;28;20073;-92
2022/01/30 22:06:25;;;;;;;6.45;1.13;;;6.40;99.90;;;;;;4975738;28;20118;-91
2022/01/30 22:08:51;;;;;;;11.60;1.70;;;6.40;99.90;;;;;;4976047;28;20038;-91
2022/01/30 22:11:17;;;;;;;11.13;1.40;;;6.30;99.90;;;;;;4987086;28;20114;-91
2022/01/30 22:13:45;;;;;;;14.60;1.40;;;6.30;99.90;;;;;;4976202;28;20522;-90
2022/01/30 22:16:11;;;;;;;12.70;1.90;;;6.30;99.90;;;;;;4978557;28;20038;-91
2022/01/30 22:18:37;;;;;;;6.88;1.95;;;6.30;99.90;;;;;;4977274;28;20030;-91
2022/01/30 22:21:03;;;;;;;9.43;1.52;;;6.30;99.90;;;;;;4979069;28;20502;-90
2022/01/30 22:23:29;;;;;;;15.15;3.33;;;6.30;99.90;;;;;;4980222;28;20064;-90
2022/01/30 22:25:55;;;;;;;12.20;2.78;;;6.30;99.90;;;;;;4979651;28;20066;-90
2022/01/30 22:28:21;;;;;;;12.85;1.70;;;6.30;99.90;;;;;;4980563;28;20027;-91
2022/01/30 22:30:47;;;;;;;5.07;1.40;;;6.20;99.90;;;;;;4980275;28;20057;-92
2022/01/30 22:33:13;;;;;;;12.25;1.98;;;6.20;99.90;;;;;;4978681;28;20061;-93
2022/01/30 22:35:39;;;;;;;11.88;1.70;;;6.20;99.90;;;;;;4969490;28;20399;-91